createdAt,value
2023-12-30T00:00:36.866Z,2.500
2023-12-30T00:03:36.374Z,2.300
2023-12-30T00:04:36.219Z,2.700
2023-12-30T00:05:36.393Z,2.200
2023-12-30T00:06:36.377Z,2.500
2023-12-30T00:07:36.292Z,2.300
2023-12-30T00:08:36.021Z,2.100
2023-12-30T00:09:35.863Z,1.900
2023-12-30T00:10:37.060Z,2.300
2023-12-30T00:11:35.818Z,1.800
2023-12-30T00:12:36.875Z,1.600
2023-12-30T00:13:36.955Z,2.100
2023-12-30T00:14:35.757Z,2.100
2023-12-30T00:15:36.664Z,2.400
2023-12-30T00:16:36.664Z,2.000
2023-12-30T00:17:37.027Z,2.100
2023-12-30T00:18:36.119Z,1.800
2023-12-30T00:19:36.569Z,1.700
2023-12-30T00:20:36.691Z,1.800
2023-12-30T00:21:36.553Z,1.700
2023-12-30T00:22:36.475Z,1.800
2023-12-30T00:23:50.149Z,1.400
2023-12-30T00:26:35.934Z,1.500
2023-12-30T00:27:36.776Z,1.300
2023-12-30T00:28:36.841Z,1.200
2023-12-30T00:29:36.845Z,2.000
2023-12-30T00:30:36.997Z,1.300
2023-12-30T00:31:35.987Z,1.300
2023-12-30T00:32:36.171Z,1.300
2023-12-30T00:33:39.025Z,1.300
2023-12-30T00:34:36.288Z,1.600
2023-12-30T00:35:36.297Z,1.300
2023-12-30T00:36:36.076Z,1.500
2023-12-30T00:37:35.820Z,1.200
2023-12-30T00:38:36.984Z,1.500
2023-12-30T00:39:35.856Z,1.100
2023-12-30T00:41:36.610Z,1.500
2023-12-30T00:42:36.472Z,1.600
2023-12-30T00:43:36.646Z,2.400
2023-12-30T00:45:36.519Z,1.500
2023-12-30T00:46:36.729Z,1.700
2023-12-30T00:47:36.961Z,1.400
2023-12-30T00:48:35.865Z,1.200
2023-12-30T00:49:36.090Z,1.500
2023-12-30T00:50:35.993Z,1.500
2023-12-30T00:53:36.550Z,1.600
2023-12-30T00:54:51.785Z,1.300
2023-12-30T00:55:36.756Z,1.600
2023-12-30T00:57:36.258Z,1.900
2023-12-30T00:58:36.101Z,1.900
2023-12-30T00:59:35.958Z,1.400
2023-12-30T01:02:36.163Z,1.700
2023-12-30T01:03:36.015Z,1.600
2023-12-30T01:04:36.435Z,1.400
2023-12-30T01:05:36.548Z,1.800
2023-12-30T01:06:36.374Z,1.200
2023-12-30T01:07:36.324Z,1.600
2023-12-30T01:08:36.351Z,1.700
2023-12-30T01:09:36.246Z,1.500
2023-12-30T01:10:36.726Z,1.700
2023-12-30T01:11:36.531Z,1.700
2023-12-30T01:13:36.459Z,1.900
2023-12-30T01:15:36.160Z,1.400
2023-12-30T01:16:36.370Z,2.000
2023-12-30T01:17:36.929Z,1.600
2023-12-30T01:18:36.825Z,1.300
2023-12-30T01:19:36.236Z,1.600
2023-12-30T01:22:36.945Z,1.800
2023-12-30T01:23:36.742Z,1.800
2023-12-30T01:24:36.435Z,1.800
2023-12-30T01:25:36.646Z,1.900
2023-12-30T01:26:36.348Z,1.800
2023-12-30T01:28:36.172Z,1.800
2023-12-30T01:30:36.113Z,1.800
2023-12-30T01:31:36.337Z,2.100
2023-12-30T01:32:36.440Z,2.100
2023-12-30T01:33:37.278Z,1.800
2023-12-30T01:34:36.914Z,1.900
2023-12-30T01:35:35.997Z,1.900
2023-12-30T01:36:35.796Z,1.900
2023-12-30T01:37:36.931Z,2.000
2023-12-30T01:38:36.660Z,2.200
2023-12-30T01:40:37.136Z,2.100
2023-12-30T01:41:35.882Z,1.900
2023-12-30T01:42:36.680Z,2.000
2023-12-30T01:43:41.346Z,1.900
2023-12-30T01:45:35.959Z,1.700
2023-12-30T01:46:37.657Z,2.000
2023-12-30T01:47:36.794Z,1.900
2023-12-30T01:49:36.435Z,5.200
2023-12-30T01:50:36.274Z,2.500
2023-12-30T01:53:36.598Z,2.400
2023-12-30T01:54:36.435Z,2.000
2023-12-30T01:55:36.586Z,2.200
2023-12-30T01:57:36.372Z,2.200
2023-12-30T01:58:36.150Z,2.300
2023-12-30T01:59:36.020Z,2.200
2023-12-30T02:00:35.892Z,2.000
2023-12-30T02:01:37.471Z,2.200
2023-12-30T02:02:36.521Z,2.200
2023-12-30T02:03:36.691Z,2.400
2023-12-30T02:04:37.098Z,2.000
2023-12-30T02:05:36.347Z,2.200
2023-12-30T02:06:36.177Z,2.400
2023-12-30T02:07:36.220Z,2.600
2023-12-30T02:08:35.993Z,2.400
2023-12-30T02:09:35.712Z,2.400
2023-12-30T02:10:36.840Z,2.500
2023-12-30T02:11:36.654Z,2.300
2023-12-30T02:12:36.435Z,2.300
2023-12-30T02:13:36.786Z,2.500
2023-12-30T02:14:36.884Z,2.400
2023-12-30T02:15:36.633Z,2.400
2023-12-30T02:16:36.694Z,1.900
2023-12-30T02:17:37.391Z,2.100
2023-12-30T02:18:36.870Z,2.100
2023-12-30T02:19:36.360Z,2.300
2023-12-30T02:20:36.433Z,2.500
2023-12-30T02:21:36.174Z,2.700
2023-12-30T02:22:36.133Z,2.300
2023-12-30T02:23:35.840Z,2.800
2023-12-30T02:24:36.960Z,2.500
2023-12-30T02:25:37.356Z,2.700
2023-12-30T02:26:36.241Z,2.700
2023-12-30T02:27:36.044Z,2.400
2023-12-30T02:28:36.258Z,2.400
2023-12-30T02:29:36.223Z,2.300
2023-12-30T02:30:36.164Z,2.400
2023-12-30T02:31:36.395Z,2.400
2023-12-30T02:32:36.521Z,2.400
2023-12-30T02:33:36.807Z,2.700
2023-12-30T02:34:37.134Z,2.500
2023-12-30T02:35:35.953Z,2.100
2023-12-30T02:36:35.772Z,2.800
2023-12-30T02:37:36.884Z,2.600
2023-12-30T02:38:36.612Z,2.200
2023-12-30T02:39:36.672Z,2.500
2023-12-30T02:40:36.734Z,2.600
2023-12-30T02:41:36.650Z,2.600
2023-12-30T02:42:36.324Z,2.400
2023-12-30T02:43:36.404Z,2.400
2023-12-30T02:45:36.070Z,2.400
2023-12-30T02:46:36.113Z,2.600
2023-12-30T02:47:36.317Z,2.900
2023-12-30T02:48:37.057Z,2.400
2023-12-30T02:49:36.485Z,2.400
2023-12-30T02:50:36.541Z,2.700
2023-12-30T02:51:36.336Z,2.400
2023-12-30T02:52:36.252Z,2.600
2023-12-30T02:53:36.001Z,2.400
2023-12-30T02:56:35.786Z,2.500
2023-12-30T02:57:48.281Z,2.700
2023-12-30T02:58:36.752Z,2.300
2023-12-30T03:00:36.674Z,2.700
2023-12-30T03:01:37.496Z,2.700
2023-12-30T03:02:36.430Z,2.600
2023-12-30T03:03:36.164Z,2.800
2023-12-30T03:04:36.746Z,2.300
2023-12-30T03:05:37.497Z,2.100
2023-12-30T03:06:36.403Z,2.500
2023-12-30T03:07:36.473Z,2.100
2023-12-30T03:08:36.308Z,2.700
2023-12-30T03:11:36.341Z,2.600
2023-12-30T03:12:36.131Z,2.200
2023-12-30T03:13:36.172Z,2.300
2023-12-30T03:15:36.118Z,2.300
2023-12-30T03:16:36.223Z,2.500
2023-12-30T03:17:36.578Z,2.200
2023-12-30T03:18:37.316Z,2.300
2023-12-30T03:19:37.534Z,2.200
2023-12-30T03:20:36.301Z,2.700
2023-12-30T03:21:36.022Z,2.100
2023-12-30T03:24:36.449Z,2.800
2023-12-30T03:25:36.431Z,2.500
2023-12-30T03:26:36.167Z,2.900
2023-12-30T03:29:36.515Z,2.700
2023-12-30T03:31:37.328Z,3.300
2023-12-30T03:32:36.668Z,2.700
2023-12-30T03:33:36.975Z,2.500
2023-12-30T03:34:36.146Z,2.400
2023-12-30T03:35:35.929Z,2.900
2023-12-30T03:36:36.853Z,2.700
2023-12-30T03:37:37.022Z,2.500
2023-12-30T03:38:35.760Z,2.300
2023-12-30T03:39:36.661Z,2.800
2023-12-30T03:40:36.778Z,2.400
2023-12-30T03:41:36.663Z,2.800
2023-12-30T03:43:36.388Z,2.300
2023-12-30T03:44:36.323Z,3.000
2023-12-30T03:45:36.085Z,2.800
2023-12-30T03:46:36.109Z,2.900
2023-12-30T03:47:35.973Z,2.900
2023-12-30T03:48:36.395Z,2.700
2023-12-30T03:49:37.378Z,2.700
2023-12-30T03:50:36.406Z,2.800
2023-12-30T03:51:36.130Z,2.800
2023-12-30T03:52:36.404Z,3.100
2023-12-30T03:54:35.996Z,3.000
2023-12-30T03:55:37.153Z,3.300
2023-12-30T03:56:36.011Z,2.800
2023-12-30T03:57:35.733Z,3.300
2023-12-30T03:58:37.251Z,2.800
2023-12-30T03:59:36.012Z,3.100
2023-12-30T04:00:35.809Z,3.100
2023-12-30T04:01:36.875Z,2.900
2023-12-30T04:02:35.928Z,3.100
2023-12-30T04:03:36.938Z,2.800
2023-12-30T04:04:35.949Z,3.000
2023-12-30T04:05:36.217Z,2.900
2023-12-30T04:06:36.142Z,2.900
2023-12-30T04:07:36.490Z,3.200
2023-12-30T04:08:36.493Z,2.800
2023-12-30T04:09:36.250Z,3.100
2023-12-30T04:10:36.517Z,2.900
2023-12-30T04:11:36.669Z,3.600
2023-12-30T04:13:36.935Z,3.200
2023-12-30T04:14:35.754Z,3.100
2023-12-30T04:15:36.702Z,3.100
2023-12-30T04:16:36.946Z,3.100
2023-12-30T04:17:36.963Z,2.800
2023-12-30T04:18:36.064Z,2.900
2023-12-30T04:19:36.213Z,2.600
2023-12-30T04:20:35.987Z,3.200
2023-12-30T04:21:36.846Z,3.200
2023-12-30T04:22:36.923Z,3.000
2023-12-30T04:23:36.693Z,3.000
2023-12-30T04:25:36.408Z,3.000
2023-12-30T04:26:36.566Z,3.200
2023-12-30T04:27:36.298Z,3.200
2023-12-30T04:28:36.307Z,3.400
2023-12-30T04:30:36.037Z,3.200
2023-12-30T04:31:36.086Z,3.300
2023-12-30T04:32:35.944Z,3.800
2023-12-30T04:33:36.711Z,3.500
2023-12-30T04:34:36.118Z,3.000
2023-12-30T04:35:35.983Z,3.100
2023-12-30T04:38:36.514Z,2.800
2023-12-30T04:39:36.282Z,3.100
2023-12-30T04:40:36.420Z,3.000
2023-12-30T04:41:36.351Z,3.500
2023-12-30T04:42:36.062Z,3.600
2023-12-30T04:43:36.014Z,3.500
2023-12-30T04:46:37.051Z,3.100
2023-12-30T04:47:35.904Z,3.400
2023-12-30T04:48:35.809Z,3.200
2023-12-30T04:49:37.342Z,3.500
2023-12-30T04:51:36.031Z,3.200
2023-12-30T04:52:36.370Z,2.900
2023-12-30T04:54:36.141Z,3.600
2023-12-30T04:55:36.433Z,4.300
2023-12-30T04:56:36.242Z,3.100
2023-12-30T04:57:36.046Z,3.500
2023-12-30T04:58:36.109Z,3.800
2023-12-30T05:01:36.374Z,3.100
2023-12-30T05:02:36.370Z,2.600
2023-12-30T05:03:36.694Z,3.200
2023-12-30T05:04:36.989Z,2.800
2023-12-30T05:05:35.973Z,3.000
2023-12-30T05:06:36.013Z,3.300
2023-12-30T05:07:36.103Z,3.100
2023-12-30T05:09:35.824Z,2.500
2023-12-30T05:10:37.664Z,2.700
2023-12-30T05:11:36.696Z,2.800
2023-12-30T05:12:36.767Z,2.900
2023-12-30T05:13:37.133Z,2.700
2023-12-30T05:14:36.202Z,2.600
2023-12-30T05:15:35.811Z,2.700
2023-12-30T05:16:37.096Z,2.800
2023-12-30T05:17:36.725Z,2.400
2023-12-30T05:18:36.012Z,2.900
2023-12-30T05:19:36.869Z,2.900
2023-12-30T05:20:36.570Z,2.600
2023-12-30T05:23:36.679Z,2.400
2023-12-30T05:25:36.871Z,2.300
2023-12-30T05:26:35.749Z,2.300
2023-12-30T05:27:36.658Z,2.500
2023-12-30T05:28:36.627Z,2.000
2023-12-30T05:29:36.557Z,2.100
2023-12-30T05:30:36.627Z,2.100
2023-12-30T05:31:36.854Z,2.300
2023-12-30T05:32:36.894Z,2.600
2023-12-30T05:33:36.376Z,2.200
2023-12-30T05:34:36.671Z,2.100
2023-12-30T05:35:36.725Z,2.200
2023-12-30T05:37:36.624Z,2.500
2023-12-30T05:38:36.689Z,1.900
2023-12-30T05:39:36.829Z,2.000
2023-12-30T05:40:37.005Z,2.200
2023-12-30T05:41:35.848Z,2.100
2023-12-30T05:42:36.709Z,1.800
2023-12-30T05:43:39.552Z,2.000
2023-12-30T05:44:36.382Z,1.700
2023-12-30T05:45:36.112Z,1.600
2023-12-30T05:46:36.563Z,1.500
2023-12-30T05:47:36.717Z,2.000
2023-12-30T05:48:37.349Z,1.900
2023-12-30T05:49:36.190Z,1.700
2023-12-30T05:50:35.912Z,1.800
2023-12-30T05:51:37.144Z,1.600
2023-12-30T05:52:36.393Z,1.800
2023-12-30T05:53:36.412Z,1.700
2023-12-30T05:54:36.221Z,1.600
2023-12-30T05:55:36.061Z,1.900
2023-12-30T05:56:36.176Z,1.600
2023-12-30T05:57:38.643Z,1.700
2023-12-30T05:58:36.972Z,1.400
2023-12-30T06:01:36.551Z,1.500
2023-12-30T06:02:36.511Z,1.700
2023-12-30T06:03:36.379Z,1.800
2023-12-30T06:04:36.596Z,1.700
2023-12-30T06:05:36.775Z,1.700
2023-12-30T06:06:40.130Z,1.700
2023-12-30T06:07:36.154Z,1.800
2023-12-30T06:09:35.777Z,1.700
2023-12-30T06:10:37.152Z,1.600
2023-12-30T06:11:36.017Z,1.400
2023-12-30T06:12:35.861Z,1.500
2023-12-30T06:13:36.892Z,1.700
2023-12-30T06:14:35.805Z,1.800
2023-12-30T06:15:36.520Z,1.700
2023-12-30T06:16:36.393Z,1.600
2023-12-30T06:17:36.787Z,1.800
2023-12-30T06:18:36.158Z,1.600
2023-12-30T06:19:36.741Z,1.400
2023-12-30T06:21:36.436Z,1.600
2023-12-30T06:22:36.490Z,1.900
2023-12-30T06:23:36.535Z,1.500
2023-12-30T06:24:36.279Z,1.900
2023-12-30T06:25:36.641Z,1.900
2023-12-30T06:26:36.530Z,1.900
2023-12-30T06:27:36.216Z,2.100
2023-12-30T06:28:36.223Z,1.700
2023-12-30T06:30:36.776Z,1.900
2023-12-30T06:31:36.924Z,1.600
2023-12-30T06:32:36.249Z,1.600
2023-12-30T06:33:37.123Z,2.100
2023-12-30T06:34:36.405Z,1.700
2023-12-30T06:35:36.499Z,1.800
2023-12-30T06:36:36.232Z,1.700
2023-12-30T06:37:37.033Z,1.400
2023-12-30T06:38:35.813Z,2.000
2023-12-30T06:39:36.671Z,1.800
2023-12-30T06:40:36.958Z,1.800
2023-12-30T06:41:35.868Z,2.000
2023-12-30T06:42:36.649Z,1.900
2023-12-30T06:43:36.603Z,1.600
2023-12-30T06:44:36.574Z,1.900
2023-12-30T06:45:36.447Z,1.800
2023-12-30T06:46:36.483Z,1.800
2023-12-30T06:47:36.453Z,1.600
2023-12-30T06:48:36.626Z,2.000
2023-12-30T06:49:37.249Z,2.100
2023-12-30T06:50:36.151Z,2.100
2023-12-30T06:51:35.930Z,1.800
2023-12-30T06:52:37.076Z,2.100
2023-12-30T06:53:35.892Z,1.600
2023-12-30T06:54:36.660Z,1.900
2023-12-30T06:55:51.745Z,2.000
2023-12-30T06:58:36.477Z,2.000
2023-12-30T06:59:36.262Z,2.000
2023-12-30T07:01:36.843Z,2.300
2023-12-30T07:02:36.516Z,2.100
2023-12-30T07:03:36.803Z,1.800
2023-12-30T07:04:36.217Z,1.800
2023-12-30T07:05:36.308Z,2.200
2023-12-30T07:07:36.266Z,2.200
2023-12-30T07:09:35.752Z,2.400
2023-12-30T07:10:36.919Z,2.200
2023-12-30T07:11:35.665Z,2.000
2023-12-30T07:12:36.454Z,2.000
2023-12-30T07:13:36.391Z,2.200
2023-12-30T07:14:36.534Z,2.000
2023-12-30T07:15:36.442Z,2.100
2023-12-30T07:16:36.571Z,2.500
2023-12-30T07:17:36.896Z,1.900
2023-12-30T07:18:37.154Z,2.300
2023-12-30T07:19:36.524Z,2.300
2023-12-30T07:21:36.105Z,2.000
2023-12-30T07:22:36.206Z,2.700
2023-12-30T07:23:36.192Z,2.300
2023-12-30T07:24:35.973Z,2.200
2023-12-30T07:25:36.184Z,2.000
2023-12-30T07:27:35.785Z,2.200
2023-12-30T07:28:36.896Z,2.400
2023-12-30T07:29:36.701Z,2.300
2023-12-30T07:30:36.746Z,2.400
2023-12-30T07:31:36.981Z,2.300
2023-12-30T07:32:36.329Z,2.100
2023-12-30T07:33:37.037Z,2.500
2023-12-30T07:34:36.439Z,2.200
2023-12-30T07:35:36.495Z,2.300
2023-12-30T07:36:36.312Z,2.000
2023-12-30T07:37:36.598Z,2.200
2023-12-30T07:38:36.492Z,2.500
2023-12-30T07:39:36.315Z,2.200
2023-12-30T07:40:36.304Z,2.000
2023-12-30T07:42:36.172Z,2.200
2023-12-30T07:43:36.093Z,2.100
2023-12-30T07:45:35.698Z,2.300
2023-12-30T07:46:36.903Z,2.500
2023-12-30T07:47:37.114Z,2.200
2023-12-30T07:48:36.370Z,2.500
2023-12-30T07:49:36.892Z,2.000
2023-12-30T07:50:36.078Z,1.900
2023-12-30T07:51:35.782Z,2.100
2023-12-30T07:52:36.927Z,2.100
2023-12-30T07:53:35.820Z,1.800
2023-12-30T07:54:36.573Z,2.200
2023-12-30T07:55:36.587Z,2.100
2023-12-30T07:56:36.577Z,2.200
2023-12-30T07:57:36.294Z,2.300
2023-12-30T07:58:36.342Z,2.200
2023-12-30T07:59:36.224Z,2.000
2023-12-30T08:00:36.213Z,2.200
2023-12-30T08:01:36.926Z,2.300
2023-12-30T08:02:35.922Z,2.300
2023-12-30T08:03:35.801Z,2.100
2023-12-30T08:04:36.930Z,2.100
2023-12-30T08:05:36.099Z,2.700
2023-12-30T08:07:35.994Z,2.100
2023-12-30T08:08:36.198Z,2.300
2023-12-30T08:09:36.025Z,2.000
2023-12-30T08:10:35.871Z,2.400
2023-12-30T08:11:46.167Z,2.100
2023-12-30T08:12:36.205Z,2.300
2023-12-30T08:13:36.209Z,2.500
2023-12-30T08:14:36.216Z,2.100
2023-12-30T08:15:35.960Z,2.300
2023-12-30T08:16:36.077Z,2.500
2023-12-30T08:17:36.905Z,2.000
2023-12-30T08:18:36.825Z,2.500
2023-12-30T08:19:36.099Z,2.100
2023-12-30T08:20:36.023Z,1.800
2023-12-30T08:21:35.725Z,2.300
2023-12-30T08:22:37.209Z,2.200
2023-12-30T08:23:36.204Z,2.300
2023-12-30T08:24:36.049Z,1.900
2023-12-30T08:25:35.961Z,1.800
2023-12-30T08:28:36.831Z,2.500
2023-12-30T08:29:35.687Z,2.400
2023-12-30T08:30:36.681Z,2.200
2023-12-30T08:31:36.707Z,2.600
2023-12-30T08:32:36.569Z,2.400
2023-12-30T08:33:36.722Z,2.200
2023-12-30T08:34:36.989Z,2.200
2023-12-30T08:35:35.795Z,2.400
2023-12-30T08:36:36.677Z,2.200
2023-12-30T08:37:36.745Z,2.200
2023-12-30T08:39:36.416Z,2.100
2023-12-30T08:40:40.224Z,2.000
2023-12-30T08:41:36.069Z,1.800
2023-12-30T08:42:35.768Z,2.200
2023-12-30T08:43:36.833Z,2.100
2023-12-30T08:44:35.767Z,2.300
2023-12-30T08:45:36.473Z,2.000
2023-12-30T08:46:37.024Z,2.300
2023-12-30T08:47:36.320Z,2.300
2023-12-30T08:48:36.853Z,2.400
2023-12-30T08:49:36.132Z,1.900
2023-12-30T08:50:35.808Z,1.900
2023-12-30T08:51:36.750Z,2.400
2023-12-30T08:52:37.043Z,2.000
2023-12-30T08:53:36.032Z,2.200
2023-12-30T08:54:35.749Z,2.400
2023-12-30T08:55:36.733Z,1.700
2023-12-30T08:56:36.703Z,2.200
2023-12-30T08:57:36.419Z,2.300
2023-12-30T08:58:36.707Z,2.500
2023-12-30T09:00:36.497Z,1.800
2023-12-30T09:01:36.798Z,2.100
2023-12-30T09:02:36.820Z,2.100
2023-12-30T09:03:37.283Z,2.100
2023-12-30T09:04:36.438Z,2.100
2023-12-30T09:05:36.879Z,2.500
2023-12-30T09:06:35.869Z,2.300
2023-12-30T09:07:37.021Z,2.100
2023-12-30T09:08:36.312Z,2.100
2023-12-30T09:09:36.020Z,2.300
2023-12-30T09:10:35.952Z,2.300
2023-12-30T09:11:36.758Z,2.600
2023-12-30T09:12:36.503Z,2.200
2023-12-30T09:13:36.514Z,2.200
2023-12-30T09:14:36.489Z,2.600
2023-12-30T09:16:36.222Z,2.000
2023-12-30T09:17:36.399Z,2.400
2023-12-30T09:18:36.928Z,2.300
2023-12-30T09:19:36.396Z,2.700
2023-12-30T09:20:36.344Z,2.300
2023-12-30T09:21:36.021Z,2.500
2023-12-30T09:22:36.092Z,2.200
2023-12-30T09:23:36.125Z,2.600
2023-12-30T09:24:35.904Z,2.400
2023-12-30T09:25:37.085Z,2.100
2023-12-30T09:26:35.934Z,2.200
2023-12-30T09:27:35.764Z,2.400
2023-12-30T09:28:36.869Z,2.400
2023-12-30T09:29:35.877Z,2.600
2023-12-30T09:30:37.107Z,2.100
2023-12-30T09:31:36.069Z,2.600
2023-12-30T09:32:35.869Z,2.600
2023-12-30T09:33:37.170Z,2.200
2023-12-30T09:34:47.561Z,2.500
2023-12-30T09:35:36.471Z,2.800
2023-12-30T09:37:36.441Z,2.600
2023-12-30T09:38:36.468Z,2.800
2023-12-30T09:39:36.248Z,2.700
2023-12-30T09:40:36.379Z,2.800
2023-12-30T09:41:36.386Z,2.300
2023-12-30T09:42:36.119Z,2.300
2023-12-30T09:43:36.789Z,2.200
2023-12-30T09:44:36.724Z,2.000
2023-12-30T09:45:36.515Z,2.300
2023-12-30T09:46:36.802Z,2.400
2023-12-30T09:47:37.502Z,2.200
2023-12-30T09:48:37.187Z,2.200
2023-12-30T09:49:36.431Z,1.900
2023-12-30T09:50:36.349Z,2.400
2023-12-30T09:52:36.171Z,1.900
2023-12-30T09:54:52.736Z,2.300
2023-12-30T09:55:36.797Z,2.100
2023-12-30T09:56:35.792Z,1.900
2023-12-30T09:57:36.509Z,2.100
2023-12-30T09:58:36.730Z,2.100
2023-12-30T09:59:36.773Z,2.200
2023-12-30T10:00:36.789Z,2.000
2023-12-30T10:01:41.008Z,2.000
2023-12-30T10:02:36.500Z,2.400
2023-12-30T10:03:37.089Z,2.000
2023-12-30T10:04:36.295Z,1.900
2023-12-30T10:05:37.134Z,1.900
2023-12-30T10:06:36.004Z,2.000
2023-12-30T10:07:36.193Z,2.300
2023-12-30T10:08:36.269Z,1.900
2023-12-30T10:09:36.042Z,1.700
2023-12-30T10:10:36.048Z,1.800
2023-12-30T10:13:36.920Z,2.200
2023-12-30T10:14:35.980Z,1.600
2023-12-30T10:15:35.862Z,2.000
2023-12-30T10:17:36.126Z,1.900
2023-12-30T10:18:37.022Z,2.200
2023-12-30T10:19:36.517Z,2.400
2023-12-30T10:20:36.672Z,2.300
2023-12-30T10:21:36.727Z,1.700
2023-12-30T10:22:36.743Z,1.600
2023-12-30T10:23:35.890Z,2.100
2023-12-30T10:24:36.883Z,1.700
2023-12-30T10:25:37.256Z,1.700
2023-12-30T10:26:36.182Z,1.600
2023-12-30T10:27:36.541Z,1.800
2023-12-30T10:28:36.684Z,2.000
2023-12-30T10:29:47.353Z,1.900
2023-12-30T10:30:37.210Z,1.900
2023-12-30T10:31:36.265Z,2.100
2023-12-30T10:32:36.504Z,1.900
2023-12-30T10:33:37.630Z,1.700
2023-12-30T10:34:36.080Z,1.700
2023-12-30T10:35:36.021Z,1.700
2023-12-30T10:36:35.776Z,1.400
2023-12-30T10:37:37.040Z,1.700
2023-12-30T10:38:36.123Z,1.100
2023-12-30T10:39:38.915Z,1.400
2023-12-30T10:40:36.895Z,1.500
2023-12-30T10:42:35.921Z,1.400
2023-12-30T10:43:37.020Z,1.400
2023-12-30T10:44:35.869Z,1.300
2023-12-30T10:45:36.731Z,1.500
2023-12-30T10:46:36.770Z,1.500
2023-12-30T10:47:36.828Z,1.000
2023-12-30T10:48:35.764Z,1.100
2023-12-30T10:49:37.129Z,1.400
2023-12-30T10:50:36.579Z,1.500
2023-12-30T10:51:35.847Z,1.700
2023-12-30T10:52:37.082Z,1.600
2023-12-30T10:53:35.973Z,1.700
2023-12-30T10:54:36.076Z,1.600
2023-12-30T10:55:36.150Z,1.700
2023-12-30T10:57:35.974Z,2.000
2023-12-30T10:58:37.046Z,1.700
2023-12-30T10:59:35.849Z,1.700
2023-12-30T11:00:36.829Z,1.900
2023-12-30T11:01:36.256Z,2.000
2023-12-30T11:02:36.202Z,1.900
2023-12-30T11:04:36.472Z,2.100
2023-12-30T11:05:37.133Z,1.900
2023-12-30T11:06:36.500Z,2.300
2023-12-30T11:07:36.559Z,1.800
2023-12-30T11:08:36.351Z,1.900
2023-12-30T11:10:36.117Z,1.800
2023-12-30T11:11:36.390Z,1.900
2023-12-30T11:12:36.188Z,2.100
2023-12-30T11:13:36.140Z,2.100
2023-12-30T11:14:36.272Z,1.900
2023-12-30T11:15:36.009Z,1.800
2023-12-30T11:16:35.890Z,1.600
2023-12-30T11:17:37.113Z,2.400
2023-12-30T11:18:36.525Z,1.900
2023-12-30T11:19:37.347Z,1.900
2023-12-30T11:20:36.436Z,2.000
2023-12-30T11:21:36.178Z,2.100
2023-12-30T11:22:36.279Z,2.400
2023-12-30T11:23:36.229Z,2.500
2023-12-30T11:24:36.098Z,2.500
2023-12-30T11:25:36.212Z,1.700
2023-12-30T11:26:36.285Z,2.100
2023-12-30T11:27:36.187Z,2.400
2023-12-30T11:28:36.513Z,2.000
2023-12-30T11:29:36.489Z,1.700
2023-12-30T11:30:36.434Z,2.000
2023-12-30T11:31:36.585Z,1.800
2023-12-30T11:32:37.077Z,2.200
2023-12-30T11:33:36.801Z,1.800
2023-12-30T11:34:36.024Z,2.100
2023-12-30T11:35:35.845Z,1.900
2023-12-30T11:36:36.657Z,2.000
2023-12-30T11:37:36.833Z,2.200
2023-12-30T11:39:36.554Z,2.100
2023-12-30T11:40:36.619Z,2.000
2023-12-30T11:42:51.688Z,1.900
2023-12-30T11:44:36.390Z,2.100
2023-12-30T11:45:36.076Z,1.800
2023-12-30T11:46:35.969Z,2.000
2023-12-30T11:47:36.368Z,2.200
2023-12-30T11:48:37.090Z,1.800
2023-12-30T11:50:36.637Z,1.800
2023-12-30T11:51:36.444Z,1.800
2023-12-30T11:52:36.385Z,1.800
2023-12-30T11:54:35.897Z,2.200
2023-12-30T11:55:37.146Z,2.200
2023-12-30T11:56:36.230Z,2.000
2023-12-30T11:57:35.973Z,1.700
2023-12-30T11:58:36.032Z,1.900
2023-12-30T11:59:36.074Z,1.600
2023-12-30T12:00:35.910Z,1.800
2023-12-30T12:01:36.182Z,2.100
2023-12-30T12:02:36.297Z,1.700
2023-12-30T12:03:36.106Z,2.200
2023-12-30T12:04:36.691Z,2.400
2023-12-30T12:05:35.982Z,1.800
2023-12-30T12:06:36.417Z,1.700
2023-12-30T12:07:36.503Z,1.900
2023-12-30T12:08:36.358Z,1.700
2023-12-30T12:09:36.160Z,1.900
2023-12-30T12:10:36.294Z,1.800
2023-12-30T12:11:36.892Z,1.300
2023-12-30T12:12:38.468Z,1.600
2023-12-30T12:13:36.572Z,1.400
2023-12-30T12:14:36.770Z,1.700
2023-12-30T12:15:36.021Z,1.900
2023-12-30T12:16:36.344Z,2.100
2023-12-30T12:17:37.343Z,1.800
2023-12-30T12:18:36.756Z,1.500
2023-12-30T12:19:36.060Z,1.700
2023-12-30T12:20:35.879Z,1.700
2023-12-30T12:21:35.891Z,1.500
2023-12-30T12:22:37.124Z,1.800
2023-12-30T12:23:36.016Z,1.700
2023-12-30T12:24:35.854Z,1.900
2023-12-30T12:25:37.162Z,1.600
2023-12-30T12:26:38.940Z,2.100
2023-12-30T12:27:36.680Z,1.800
2023-12-30T12:28:36.660Z,2.000
2023-12-30T12:30:36.521Z,2.000
2023-12-30T12:31:36.767Z,1.700
2023-12-30T12:32:39.972Z,1.800
2023-12-30T12:33:36.428Z,2.100
2023-12-30T12:34:37.197Z,1.800
2023-12-30T12:36:35.999Z,1.800
2023-12-30T12:37:35.974Z,2.900
2023-12-30T12:39:36.637Z,1.700
2023-12-30T12:40:36.729Z,1.900
2023-12-30T12:41:36.637Z,1.900
2023-12-30T12:42:41.438Z,1.700
2023-12-30T12:43:36.487Z,2.000
2023-12-30T12:44:36.331Z,2.300
2023-12-30T12:46:36.395Z,1.900
2023-12-30T12:47:36.974Z,2.100
2023-12-30T12:48:36.383Z,2.100
2023-12-30T12:49:36.677Z,1.800
2023-12-30T12:50:36.459Z,2.000
2023-12-30T12:52:36.486Z,1.800
2023-12-30T12:53:36.821Z,1.700
2023-12-30T12:55:36.621Z,2.100
2023-12-30T12:57:40.191Z,2.300
2023-12-30T12:58:36.034Z,1.700
2023-12-30T13:01:37.229Z,2.000
2023-12-30T13:02:36.071Z,1.900
2023-12-30T13:03:35.940Z,2.400
2023-12-30T13:04:35.842Z,2.100
2023-12-30T13:05:36.882Z,2.000
2023-12-30T13:06:35.926Z,1.800
2023-12-30T13:07:36.870Z,1.500
2023-12-30T13:08:40.199Z,1.700
2023-12-30T13:10:35.886Z,1.700
2023-12-30T13:11:36.953Z,3.000
2023-12-30T13:12:35.684Z,2.200
2023-12-30T13:13:36.552Z,2.500
2023-12-30T13:14:36.345Z,2.000
2023-12-30T13:15:35.986Z,1.800
2023-12-30T13:16:36.130Z,1.800
2023-12-30T13:17:36.362Z,1.800
2023-12-30T13:18:36.984Z,2.200
2023-12-30T13:19:36.375Z,2.400
2023-12-30T13:21:36.306Z,1.600
2023-12-30T13:22:36.545Z,2.000
2023-12-30T13:23:36.401Z,1.700
2023-12-30T13:26:37.549Z,2.000
2023-12-30T13:27:36.761Z,2.600
2023-12-30T13:28:36.703Z,1.900
2023-12-30T13:30:36.668Z,2.200
2023-12-30T13:31:36.948Z,2.400
2023-12-30T13:32:36.685Z,2.500
2023-12-30T13:33:37.005Z,2.000
2023-12-30T13:34:36.492Z,2.300
2023-12-30T13:35:36.605Z,2.200
2023-12-30T13:36:36.501Z,2.600
2023-12-30T13:39:36.432Z,2.200
2023-12-30T13:40:36.523Z,2.500
2023-12-30T13:42:36.647Z,2.300
2023-12-30T13:43:35.889Z,2.400
2023-12-30T13:44:35.799Z,2.700
2023-12-30T13:45:36.641Z,2.300
2023-12-30T13:46:36.716Z,3.000
2023-12-30T13:47:36.829Z,2.700
2023-12-30T13:48:37.241Z,2.600
2023-12-30T13:49:36.534Z,2.400
2023-12-30T13:50:36.431Z,2.600
2023-12-30T13:52:36.540Z,2.500
2023-12-30T13:53:36.570Z,2.800
2023-12-30T13:54:36.354Z,2.400
2023-12-30T13:55:36.295Z,2.800
2023-12-30T13:56:38.012Z,2.600
2023-12-30T13:57:35.957Z,3.000
2023-12-30T13:58:36.063Z,2.900
2023-12-30T13:59:36.084Z,2.600
2023-12-30T14:00:35.941Z,2.700
2023-12-30T14:01:36.509Z,2.300
2023-12-30T14:02:36.840Z,2.100
2023-12-30T14:03:37.233Z,2.400
2023-12-30T14:04:36.147Z,3.000
2023-12-30T14:05:36.318Z,2.900
2023-12-30T14:07:36.225Z,2.300
2023-12-30T14:08:35.990Z,2.600
2023-12-30T14:10:36.027Z,2.700
2023-12-30T14:11:36.066Z,2.600
2023-12-30T14:12:35.720Z,2.200
2023-12-30T14:13:37.203Z,2.900
2023-12-30T14:14:36.146Z,2.700
2023-12-30T14:15:35.874Z,2.700
2023-12-30T14:16:36.901Z,2.700
2023-12-30T14:17:36.211Z,2.400
2023-12-30T14:18:36.654Z,2.400
2023-12-30T14:19:37.228Z,2.900
2023-12-30T14:20:36.160Z,2.500
2023-12-30T14:21:39.516Z,2.800
2023-12-30T14:23:36.087Z,2.900
2023-12-30T14:24:35.916Z,2.900
2023-12-30T14:25:36.236Z,2.900
2023-12-30T14:26:36.109Z,2.500
2023-12-30T14:27:39.323Z,2.900
2023-12-30T14:30:36.204Z,3.200
2023-12-30T14:31:36.669Z,2.900
2023-12-30T14:32:36.979Z,3.100
2023-12-30T14:33:40.990Z,2.900
2023-12-30T14:35:35.934Z,2.900
2023-12-30T14:36:35.709Z,2.700
2023-12-30T14:37:36.745Z,2.700
2023-12-30T14:38:35.761Z,3.400
2023-12-30T14:39:36.490Z,3.100
2023-12-30T14:40:36.455Z,2.900
2023-12-30T14:41:36.214Z,3.200
2023-12-30T14:43:36.944Z,3.100
2023-12-30T14:44:35.837Z,3.800
2023-12-30T14:45:36.605Z,2.700